createdAt,value
2019-05-23T00:00:53.808Z,14.97
2019-05-23T00:03:27.282Z,14.40
2019-05-23T00:06:03.344Z,14.10
2019-05-23T00:08:32.202Z,14.23
2019-05-23T00:11:04.191Z,15.40
2019-05-23T00:13:35.809Z,15.63
2019-05-23T00:16:05.046Z,15.77
2019-05-23T00:18:35.699Z,16.13
2019-05-23T00:21:05.199Z,15.13
2019-05-23T00:23:34.780Z,14.90
2019-05-23T00:26:03.731Z,15.50
2019-05-23T00:28:33.038Z,16.10
2019-05-23T00:31:19.335Z,16.27
2019-05-23T00:33:49.383Z,16.20
2019-05-23T00:36:18.163Z,16.90
2019-05-23T00:38:47.325Z,16.93
2019-05-23T00:41:15.890Z,16.53
2019-05-23T00:43:44.821Z,17.13
2019-05-23T00:46:14.977Z,17.40
2019-05-23T00:48:44.567Z,17.13
2019-05-23T00:51:13.351Z,16.63
2019-05-23T00:53:42.204Z,17.37
2019-05-23T00:56:10.736Z,15.73
2019-05-23T00:58:39.211Z,17.27
2019-05-23T01:01:08.857Z,16.53
2019-05-23T01:03:38.871Z,16.93
2019-05-23T01:06:07.611Z,16.43
2019-05-23T01:08:36.959Z,15.90
2019-05-23T01:11:06.635Z,16.20
2019-05-23T01:13:35.679Z,14.87
2019-05-23T01:16:05.138Z,15.30
2019-05-23T01:18:34.053Z,15.87
2019-05-23T01:21:13.138Z,15.07
2019-05-23T01:23:43.254Z,15.70
2019-05-23T01:26:12.311Z,17.47
2019-05-23T01:28:40.837Z,16.37
2019-05-23T01:31:16.620Z,15.83
2019-05-23T01:33:47.083Z,16.87
2019-05-23T01:36:16.397Z,16.13
2019-05-23T01:38:45.171Z,16.17
2019-05-23T01:41:14.614Z,15.80
2019-05-23T01:43:43.956Z,16.53
2019-05-23T01:46:12.925Z,17.90
2019-05-23T01:48:42.626Z,17.13
2019-05-23T01:51:11.321Z,16.70
2019-05-23T01:53:40.231Z,17.83
2019-05-23T01:56:09.487Z,16.80
2019-05-23T01:58:38.673Z,17.80
2019-05-23T02:01:07.559Z,18.37
2019-05-23T02:03:36.031Z,18.37
2019-05-23T02:06:04.990Z,17.60
2019-05-23T02:08:34.327Z,17.80
2019-05-23T02:11:02.802Z,18.27
2019-05-23T02:13:31.551Z,17.93
2019-05-23T02:16:00.723Z,17.07
2019-05-23T02:18:29.303Z,17.47
2019-05-23T02:20:58.381Z,17.50
2019-05-23T02:23:28.238Z,17.90
2019-05-23T02:25:57.751Z,17.70
2019-05-23T02:28:26.999Z,17.60
2019-05-23T02:30:55.882Z,18.20
2019-05-23T02:33:25.329Z,18.07
2019-05-23T02:35:53.725Z,19.00
2019-05-23T02:38:23.764Z,17.77
2019-05-23T02:40:56.943Z,16.47
2019-05-23T02:43:26.356Z,18.50
2019-05-23T02:45:57.231Z,18.33
2019-05-23T02:48:30.354Z,17.97
2019-05-23T02:51:08.211Z,17.80
2019-05-23T02:53:38.763Z,18.93
2019-05-23T02:56:11.623Z,19.63
2019-05-23T02:59:00.603Z,20.40
2019-05-23T03:01:36.947Z,21.03
2019-05-23T03:04:17.778Z,20.80
2019-05-23T03:06:46.195Z,21.03
2019-05-23T03:09:16.577Z,21.27
2019-05-23T03:11:47.056Z,21.20
2019-05-23T03:14:18.983Z,20.33
2019-05-23T03:16:52.100Z,18.90
2019-05-23T03:19:27.148Z,18.73
2019-05-23T03:21:58.431Z,19.00
2019-05-23T03:24:28.778Z,18.43
2019-05-23T03:27:03.718Z,18.63
2019-05-23T03:29:34.369Z,18.93
2019-05-23T03:32:04.897Z,17.57
2019-05-23T03:34:37.995Z,18.40
2019-05-23T03:37:06.905Z,18.10
2019-05-23T03:39:35.651Z,18.03
2019-05-23T03:42:05.151Z,18.37
2019-05-23T03:44:34.050Z,17.00
2019-05-23T03:47:04.108Z,17.17
2019-05-23T03:49:34.212Z,17.83
2019-05-23T03:52:02.687Z,17.33
2019-05-23T03:54:32.836Z,17.00
2019-05-23T03:57:01.616Z,17.33
2019-05-23T03:59:31.418Z,18.63
2019-05-23T04:02:01.556Z,17.50
2019-05-23T04:04:32.089Z,19.33
2019-05-23T04:07:00.863Z,19.07
2019-05-23T04:09:30.008Z,18.73
2019-05-23T04:11:58.583Z,18.23
2019-05-23T04:14:27.656Z,17.50
2019-05-23T04:16:56.737Z,16.60
2019-05-23T04:19:25.399Z,18.63
2019-05-23T04:21:54.552Z,17.30
2019-05-23T04:24:23.324Z,17.70
2019-05-23T04:26:51.739Z,17.90
2019-05-23T04:29:20.311Z,18.57
2019-05-23T04:32:06.224Z,17.67
2019-05-23T04:34:19.337Z,17.43
2019-05-23T04:36:48.203Z,16.17
2019-05-23T04:39:16.612Z,17.27
2019-05-23T04:41:45.491Z,18.33
2019-05-23T04:44:15.448Z,18.33
2019-05-23T04:46:43.903Z,18.10
2019-05-23T04:49:12.685Z,17.27
2019-05-23T04:51:41.355Z,16.80
2019-05-23T04:54:11.032Z,18.30
2019-05-23T04:56:39.627Z,19.07
2019-05-23T04:59:08.124Z,17.47
2019-05-23T05:01:38.611Z,15.90
2019-05-23T05:04:07.739Z,16.90
2019-05-23T05:06:36.233Z,18.13
2019-05-23T05:09:08.039Z,17.30
2019-05-23T05:11:36.453Z,19.57
2019-05-23T05:14:05.631Z,19.97
2019-05-23T05:16:34.038Z,19.57
2019-05-23T05:19:02.533Z,20.30
2019-05-23T05:21:31.295Z,19.87
2019-05-23T05:23:59.843Z,18.67
2019-05-23T05:26:28.326Z,20.07
2019-05-23T05:28:56.817Z,19.70
2019-05-23T05:31:25.228Z,19.77
2019-05-23T05:33:53.679Z,19.53
2019-05-23T05:36:22.166Z,19.27
2019-05-23T05:38:50.943Z,19.40
2019-05-23T05:41:20.609Z,18.60
2019-05-23T05:43:49.561Z,18.30
2019-05-23T05:46:18.843Z,17.93
2019-05-23T05:48:47.700Z,18.83
2019-05-23T05:51:16.381Z,18.30
2019-05-23T05:53:45.065Z,17.73
2019-05-23T05:56:13.555Z,17.77
2019-05-23T05:58:42.302Z,18.33
2019-05-23T06:01:12.569Z,19.17
2019-05-23T06:03:41.323Z,18.50
2019-05-23T06:06:17.720Z,19.03
2019-05-23T06:08:53.774Z,19.07
2019-05-23T06:11:21.863Z,19.23
2019-05-23T06:13:50.287Z,18.73
2019-05-23T06:16:18.790Z,18.90
2019-05-23T06:18:47.634Z,19.53
2019-05-23T06:21:18.464Z,20.03
2019-05-23T06:23:47.655Z,19.87
2019-05-23T06:26:16.095Z,20.17
2019-05-23T06:28:45.491Z,20.67
2019-05-23T06:31:15.309Z,19.10
2019-05-23T06:33:44.332Z,19.13
2019-05-23T06:36:13.174Z,20.30
2019-05-23T06:38:42.614Z,20.87
2019-05-23T06:41:11.920Z,19.63
2019-05-23T06:43:40.770Z,19.80
2019-05-23T06:46:09.358Z,19.77
2019-05-23T06:48:37.939Z,20.27
2019-05-23T06:51:06.352Z,20.07
2019-05-23T06:53:34.781Z,20.00
2019-05-23T06:56:03.181Z,20.00
2019-05-23T06:58:31.958Z,21.13
2019-05-23T07:01:00.376Z,19.90
2019-05-23T07:03:41.489Z,20.23
2019-05-23T07:05:59.264Z,19.70
2019-05-23T07:08:30.537Z,20.63
2019-05-23T07:10:58.618Z,19.43
2019-05-23T07:13:29.606Z,19.33
2019-05-23T07:15:58.264Z,18.90
2019-05-23T07:18:27.386Z,20.77
2019-05-23T07:20:56.158Z,19.67
2019-05-23T07:23:24.647Z,20.27
2019-05-23T07:25:53.063Z,20.10
2019-05-23T07:28:21.539Z,20.23
2019-05-23T07:30:50.259Z,19.83
2019-05-23T07:33:18.760Z,20.20
2019-05-23T07:35:47.430Z,20.07
2019-05-23T07:38:16.158Z,20.53
2019-05-23T07:40:45.276Z,20.20
2019-05-23T07:43:13.955Z,20.83
2019-05-23T07:45:46.991Z,22.13
2019-05-23T07:48:16.133Z,21.57
2019-05-23T07:50:45.272Z,21.70
2019-05-23T07:53:15.656Z,21.83
2019-05-23T07:55:51.808Z,21.60
2019-05-23T07:58:20.180Z,20.67
2019-05-23T08:00:56.135Z,20.43
2019-05-23T08:03:28.231Z,20.23
2019-05-23T08:05:57.293Z,20.03
2019-05-23T08:08:25.876Z,20.03
2019-05-23T08:10:54.295Z,18.67
2019-05-23T08:13:22.927Z,19.10
2019-05-23T08:15:52.377Z,19.13
2019-05-23T08:18:21.138Z,18.27
2019-05-23T08:20:49.650Z,17.27
2019-05-23T08:23:18.243Z,17.60
2019-05-23T08:25:47.317Z,17.15
2019-05-23T08:28:16.159Z,16.90
2019-05-23T08:30:44.829Z,13.72
2019-05-23T08:33:15.641Z,14.58
2019-05-23T08:35:45.391Z,14.53
2019-05-23T08:38:14.531Z,14.43
2019-05-23T08:40:43.669Z,12.33
2019-05-23T08:43:12.544Z,12.43
2019-05-23T08:45:41.427Z,12.50
2019-05-23T08:48:09.876Z,12.82
2019-05-23T08:50:37.955Z,12.70
2019-05-23T08:53:06.399Z,10.10
2019-05-23T08:55:35.667Z,10.48
2019-05-23T08:58:04.547Z,9.85
2019-05-23T09:00:37.342Z,10.45
2019-05-23T09:03:07.619Z,9.63
2019-05-23T09:05:38.526Z,8.15
2019-05-23T09:08:09.076Z,7.85
2019-05-23T09:10:39.052Z,8.15
2019-05-23T09:13:08.515Z,7.97
2019-05-23T09:15:37.219Z,7.72
2019-05-23T09:18:05.927Z,7.45
2019-05-23T09:20:34.818Z,7.42
2019-05-23T09:23:03.524Z,8.28
2019-05-23T09:25:31.999Z,7.37
2019-05-23T09:28:00.675Z,8.05
2019-05-23T09:30:29.721Z,8.23
2019-05-23T09:32:58.640Z,8.38
2019-05-23T09:35:26.930Z,7.17
2019-05-23T09:37:55.327Z,7.15
2019-05-23T09:40:23.747Z,7.10
2019-05-23T09:42:52.211Z,6.10
2019-05-23T09:45:20.735Z,5.55
2019-05-23T09:47:51.287Z,5.75
2019-05-23T09:50:20.698Z,6.10
2019-05-23T09:52:49.099Z,5.60
2019-05-23T09:55:18.427Z,6.10
2019-05-23T09:57:46.823Z,5.72
2019-05-23T10:00:17.916Z,5.80
2019-05-23T10:02:46.337Z,5.62
2019-05-23T10:05:15.090Z,5.53
2019-05-23T10:07:43.514Z,6.53
2019-05-23T10:10:12.947Z,6.75
2019-05-23T10:12:41.635Z,5.50
2019-05-23T10:15:12.803Z,5.85
2019-05-23T10:17:41.322Z,5.00
2019-05-23T10:20:10.175Z,5.40
2019-05-23T10:22:38.579Z,5.47
2019-05-23T10:25:07.538Z,5.05
2019-05-23T10:27:36.027Z,5.75
2019-05-23T10:30:08.881Z,5.17
2019-05-23T10:32:37.356Z,4.85
2019-05-23T10:35:07.997Z,4.90
2019-05-23T10:37:36.399Z,5.05
2019-05-23T10:40:05.649Z,4.65
2019-05-23T10:42:34.227Z,5.05
2019-05-23T10:45:03.405Z,4.75
2019-05-23T10:47:32.215Z,4.08
2019-05-23T10:50:06.822Z,4.60
2019-05-23T10:52:30.709Z,4.50
2019-05-23T10:54:58.950Z,3.90
2019-05-23T10:57:27.134Z,4.12
2019-05-23T10:59:55.439Z,5.28
2019-05-23T11:02:26.886Z,4.45
2019-05-23T11:04:53.683Z,4.00
2019-05-23T11:07:23.035Z,4.42
2019-05-23T11:09:51.506Z,4.67
2019-05-23T11:12:20.195Z,4.37
2019-05-23T11:14:48.667Z,4.40
2019-05-23T11:17:17.740Z,4.22
2019-05-23T11:19:46.671Z,5.08
2019-05-23T11:22:15.525Z,4.33
2019-05-23T11:24:43.984Z,3.58
2019-05-23T11:27:12.477Z,4.35
2019-05-23T11:29:41.045Z,3.90
2019-05-23T11:32:10.293Z,3.80
2019-05-23T11:34:38.737Z,4.55
2019-05-23T11:37:07.224Z,4.20
2019-05-23T11:39:42.138Z,3.50
2019-05-23T11:42:07.513Z,4.33
2019-05-23T11:44:35.908Z,4.83
2019-05-23T11:47:05.046Z,4.70
2019-05-23T11:49:34.570Z,4.00
2019-05-23T11:52:03.217Z,4.10
2019-05-23T11:54:31.990Z,3.95
2019-05-23T11:57:00.483Z,3.90
2019-05-23T11:59:29.304Z,5.30
2019-05-23T12:02:00.121Z,4.65
2019-05-23T12:04:28.599Z,5.20
2019-05-23T12:06:58.659Z,5.35
2019-05-23T12:09:27.626Z,4.85
2019-05-23T12:11:56.129Z,3.75
2019-05-23T12:14:24.767Z,4.05
2019-05-23T12:16:53.356Z,4.97
2019-05-23T12:19:21.839Z,4.17
2019-05-23T12:21:50.406Z,4.85
2019-05-23T12:24:19.148Z,4.47
2019-05-23T12:26:47.602Z,4.22
2019-05-23T12:29:16.272Z,5.35
2019-05-23T12:31:48.865Z,4.70
2019-05-23T12:34:14.878Z,4.15
2019-05-23T12:36:43.365Z,3.65
2019-05-23T12:39:11.875Z,4.35
2019-05-23T12:41:41.954Z,4.40
2019-05-23T12:44:10.768Z,4.62
2019-05-23T12:46:39.277Z,4.90
2019-05-23T12:49:12.507Z,4.67
2019-05-23T12:51:42.615Z,4.72
2019-05-23T12:54:11.127Z,4.78
2019-05-23T12:56:40.455Z,4.62
2019-05-23T12:59:09.547Z,4.80
2019-05-23T13:01:39.767Z,5.60
2019-05-23T13:04:10.342Z,4.28
2019-05-23T13:06:39.241Z,5.12
2019-05-23T13:09:09.366Z,5.03
2019-05-23T13:11:38.513Z,5.62
2019-05-23T13:14:08.458Z,5.50
2019-05-23T13:16:36.951Z,5.12
2019-05-23T13:19:05.853Z,4.85
2019-05-23T13:21:34.530Z,5.37
2019-05-23T13:24:03.012Z,4.67
2019-05-23T13:26:32.104Z,5.47
2019-05-23T13:29:00.523Z,5.55
2019-05-23T13:31:29.200Z,5.22
2019-05-23T13:33:57.891Z,5.30
2019-05-23T13:36:26.379Z,5.03
2019-05-23T13:38:54.964Z,5.00
2019-05-23T13:41:23.483Z,4.77
2019-05-23T13:43:52.257Z,5.60
2019-05-23T13:46:20.679Z,5.47
2019-05-23T13:48:49.088Z,6.28
2019-05-23T13:51:17.487Z,5.93
2019-05-23T13:53:45.976Z,6.22
2019-05-23T13:56:14.439Z,6.12
2019-05-23T13:58:43.459Z,5.53
2019-05-23T14:01:12.320Z,6.60
2019-05-23T14:03:40.812Z,6.25
2019-05-23T14:06:09.844Z,6.80
2019-05-23T14:08:38.619Z,6.33
2019-05-23T14:11:07.028Z,7.60
2019-05-23T14:13:35.618Z,7.03
2019-05-23T14:16:05.627Z,7.30
2019-05-23T14:18:35.487Z,6.97
2019-05-23T14:21:04.545Z,7.13
2019-05-23T14:23:34.026Z,7.62
2019-05-23T14:26:02.679Z,6.30
2019-05-23T14:28:31.536Z,7.03
2019-05-23T14:31:07.683Z,7.10
2019-05-23T14:33:43.846Z,6.92
2019-05-23T14:36:32.142Z,6.85
2019-05-23T14:39:02.023Z,5.50
2019-05-23T14:41:44.752Z,5.67
2019-05-23T14:44:02.364Z,5.40
2019-05-23T14:46:32.408Z,4.42
2019-05-23T14:49:11.619Z,5.05
2019-05-23T14:51:58.435Z,5.47
2019-05-23T14:54:35.111Z,5.30
2019-05-23T14:57:05.927Z,4.45
2019-05-23T14:59:34.837Z,4.97
2019-05-23T15:02:05.315Z,4.72
2019-05-23T15:04:33.799Z,4.55
2019-05-23T15:07:02.276Z,4.60
2019-05-23T15:09:30.688Z,4.83
2019-05-23T15:11:59.679Z,4.30
2019-05-23T15:14:28.262Z,4.50
2019-05-23T15:16:56.655Z,4.70
2019-05-23T15:19:39.135Z,4.60
2019-05-23T15:21:55.306Z,4.42
2019-05-23T15:24:24.342Z,4.15
2019-05-23T15:26:52.815Z,4.08
2019-05-23T15:29:21.217Z,4.55
2019-05-23T15:32:01.673Z,4.50
2019-05-23T15:34:19.968Z,4.20
2019-05-23T15:36:48.377Z,4.70
2019-05-23T15:39:18.285Z,4.30
2019-05-23T15:41:46.966Z,4.50
2019-05-23T15:44:25.147Z,4.33
2019-05-23T15:46:45.677Z,4.12
2019-05-23T15:49:14.802Z,3.83
2019-05-23T15:51:44.842Z,3.67
2019-05-23T15:54:14.963Z,3.53
2019-05-23T15:56:45.007Z,3.80
2019-05-23T15:59:27.483Z,3.65
2019-05-23T16:01:57.527Z,3.53
2019-05-23T16:04:26.219Z,3.37
2019-05-23T16:06:55.490Z,3.40
2019-05-23T16:09:29.939Z,3.60
2019-05-23T16:11:55.108Z,3.45
2019-05-23T16:14:23.581Z,3.22
2019-05-23T16:16:56.167Z,3.07
2019-05-23T16:19:23.161Z,2.98
2019-05-23T16:21:51.564Z,2.65
2019-05-23T16:24:20.041Z,2.90
2019-05-23T16:26:48.462Z,3.00
2019-05-23T16:29:17.000Z,3.10
2019-05-23T16:31:45.567Z,3.42
2019-05-23T16:34:14.336Z,3.33
2019-05-23T16:36:42.915Z,2.97
2019-05-23T16:39:11.754Z,2.63
2019-05-23T16:41:40.160Z,3.10
2019-05-23T16:44:08.641Z,2.17
2019-05-23T16:46:37.068Z,2.20
2019-05-23T16:49:05.924Z,2.40
2019-05-23T16:51:34.329Z,2.10
2019-05-23T16:54:02.833Z,2.10
2019-05-23T16:56:45.079Z,2.20
2019-05-23T16:59:15.219Z,2.07
2019-05-23T17:01:57.895Z,2.23
2019-05-23T17:04:31.971Z,2.23
2019-05-23T17:07:07.947Z,1.97
2019-05-23T17:09:40.478Z,2.27
2019-05-23T17:12:26.723Z,2.00
2019-05-23T17:15:02.719Z,1.83
2019-05-23T17:17:49.516Z,1.90
2019-05-23T17:20:19.841Z,2.13
2019-05-23T17:23:00.370Z,2.03
2019-05-23T17:25:36.241Z,1.90
2019-05-23T17:28:12.775Z,2.10
2019-05-23T17:30:45.767Z,1.90
2019-05-23T17:33:14.774Z,2.20
2019-05-23T17:35:43.235Z,2.10
2019-05-23T17:38:11.964Z,2.20
2019-05-23T17:40:40.438Z,2.10
2019-05-23T17:43:09.107Z,2.13
2019-05-23T17:45:37.731Z,2.00
2019-05-23T17:48:06.220Z,2.63
2019-05-23T17:50:35.140Z,2.53
2019-05-23T17:53:03.726Z,2.20
2019-05-23T17:55:32.989Z,2.13
2019-05-23T17:58:02.193Z,2.30
2019-05-23T18:00:41.355Z,2.20
2019-05-23T18:03:10.053Z,2.13
2019-05-23T18:05:38.451Z,2.00
2019-05-23T18:08:09.811Z,2.10
